Last 24 Hours

Canyon Lodge - 8,343ft

5 Minute Data | America/Los_Angeles
as of 5/10/26 5:27 AM PDT
Date & Time Temp (°F) RH (%) Dew Pt (°F) Wet Bulb (°F) Wind Dir (°) Wind Spd (mph) Wind Gust (mph) Wind Gst Dir (°)
5/10/26 - 0525 46.2 30 16.6 35.7 SW | 230 1.4 4.2 SW | 226
5/10/26 - 0520 45.7 29 15.6 35.2 SW | 216 0.4 3.0 SSW | 208
5/10/26 - 0515 45.2 30 15.2 34.8 WSW | 239 0.1 2.9 SSW | 198
5/10/26 - 0510 46.6 29 16.3 35.8 SW | 226 0.5 2.3 SW | 226
5/10/26 - 0505 45.5 30 15.7 35.1 SW | 218 0.6 2.8 SSW | 200
5/10/26 - 0500 43.9 29 14.0 33.8 SSW | 212 0.0 1.3 SSW | 206
5/10/26 - 0455 44.2 29 14.2 34.0 S | 187 0.0 0.4 S | 187
5/10/26 - 0450 45.7 30 15.8 35.2 SW | 233 0.5 2.7 SW | 227
5/10/26 - 0445 45.6 30 15.6 35.1 SW | 234 0.3 2.8 SSW | 213
5/10/26 - 0440 47.4 30 17.3 36.4 SW | 230 1.4 3.8 SSW | 200
5/10/26 - 0435 47.4 29 17.1 36.4 SW | 233 1.8 3.8 WSW | 250
5/10/26 - 0430 45.8 28 14.9 35.0 SW | 234 0.3 2.4 WSW | 243
5/10/26 - 0425 46.2 28 15.0 35.3 WSW | 237 0.3 2.9 WSW | 242
5/10/26 - 0420 46.9 29 16.4 36.0 WSW | 239 0.8 3.6 SW | 220
5/10/26 - 0415 45.6 28 14.7 34.9 WSW | 248 0.0 0.5 WSW | 244
5/10/26 - 0410 46.3 28 15.3 35.4 SW | 221 0.6 3.8 SW | 221
5/10/26 - 0405 47.4 29 16.5 36.3 SW | 230 1.2 4.9 SW | 223
5/10/26 - 0400 46.9 29 16.3 36.0 SW | 229 1.0 3.8 SW | 217
5/10/26 - 0355 46.8 28 15.4 35.7 SW | 226 1.0 4.1 SW | 221
5/10/26 - 0350 47.4 28 16.2 36.2 SW | 232 1.1 3.6 WSW | 246
5/10/26 - 0345 46.7 28 15.4 35.6 SW | 224 1.1 3.8 SW | 222
5/10/26 - 0340 45.6 28 14.0 34.8 SSW | 213 0.2 1.7 SW | 214
5/10/26 - 0335 47.5 28 15.7 36.2 SW | 236 0.6 2.4 WSW | 242
5/10/26 - 0330 47.5 27 15.4 36.1 WSW | 243 1.1 3.8 WSW | 253
5/10/26 - 0325 47.6 27 15.1 36.1 WSW | 243 1.6 3.6 W | 265
5/10/26 - 0320 48.1 27 15.4 36.4 WSW | 237 1.8 4.2 WSW | 243
5/10/26 - 0315 47.2 27 14.7 35.8 WSW | 237 0.9 2.9 SW | 224
5/10/26 - 0310 46.9 27 14.4 35.6 SW | 233 0.3 1.8 WSW | 244
5/10/26 - 0305 47.5 27 15.0 36.0 WSW | 243 1.0 3.7 WSW | 240
5/10/26 - 0300 47.6 27 14.9 36.0 WSW | 243 1.4 4.3 WSW | 257
5/10/26 - 0255 47.7 26 14.9 36.1 WSW | 237 1.7 4.1 WSW | 237
5/10/26 - 0250 47.0 26 14.3 35.6 WSW | 248 2.4 5.0 SW | 224
5/10/26 - 0245 47.0 27 14.4 35.6 WSW | 252 1.3 4.7 WSW | 238
5/10/26 - 0240 47.6 26 14.7 36.0 WSW | 248 1.7 4.7 W | 260
5/10/26 - 0235 47.5 27 14.8 36.0 WSW | 253 2.4 4.8 WSW | 258
5/10/26 - 0230 47.8 27 15.4 36.2 WSW | 248 3.2 5.6 WSW | 246
5/10/26 - 0225 47.9 27 15.6 36.3 WSW | 237 1.7 4.0 WSW | 246
5/10/26 - 0220 48.1 27 15.8 36.5 WSW | 239 1.5 3.0 WSW | 250
5/10/26 - 0215 48.3 27 15.8 36.6 WSW | 246 1.8 4.7 WSW | 255
5/10/26 - 0210 47.4 26 14.2 35.8 SW | 234 0.1 0.9 WSW | 257
5/10/26 - 0205 47.3 27 15.0 35.9 WSW | 240 0.6 2.9 WSW | 254
5/10/26 - 0200 47.9 27 15.6 36.3 WSW | 240 1.1 3.1 WSW | 241
5/10/26 - 0155 47.8 27 15.4 36.3 WSW | 249 1.1 3.2 WSW | 255
5/10/26 - 0150 48.1 27 15.7 36.5 WSW | 248 1.1 3.9 WSW | 246
5/10/26 - 0145 48.2 27 15.5 36.5 SW | 233 1.5 4.3 WSW | 250
5/10/26 - 0140 48.0 26 15.1 36.3 WSW | 247 0.8 4.1 WSW | 237
5/10/26 - 0135 47.7 26 14.8 36.1 WSW | 252 0.5 2.4 SW | 229
5/10/26 - 0130 48.0 26 14.6 36.2 WSW | 247 0.2 2.3 WSW | 246
5/10/26 - 0125 48.0 25 14.2 36.1 SW | 229 0.2 1.3 SSW | 197
5/10/26 - 0120 47.4 25 13.1 35.6 WSW | 250 0.2 1.8 W | 261
5/10/26 - 0115 47.6 24 12.8 35.6 NE | 40 0.0 0.7 NE | 44
5/10/26 - 0110 48.2 25 14.2 36.2 S | 183 0.3 3.2 SSW | 206
5/10/26 - 0105 49.7 25 15.5 37.3 SW | 217 0.3 2.0 WSW | 244
5/10/26 - 0100 50.3 25 15.7 37.6 WSW | 239 0.5 2.1 SSW | 197
5/10/26 - 0055 51.1 25 16.4 38.2 WSW | 258 0.9 3.7 WSW | 249
5/10/26 - 0050 51.0 25 16.2 38.1 W | 259 0.9 2.6 W | 260
5/10/26 - 0045 50.2 24 15.1 37.5 WSW | 254 1.2 4.7 W | 261
5/10/26 - 0040 47.6 24 12.8 35.6 W | 276 0.1 1.5 W | 266
5/10/26 - 0035 47.7 24 12.7 35.7 S | 185 0.2 2.0 S | 189
5/10/26 - 0030 48.7 24 13.4 36.3 SSW | 192 0.4 2.5 SSE | 152
5/10/26 - 0025 49.0 25 14.4 36.7 W | 273 0.1 1.9 WNW | 282
5/10/26 - 0020 49.6 25 14.8 37.1 W | 270 0.2 2.1 WSW | 247
5/10/26 - 0015 49.6 24 14.8 37.1 S | 179 0.0 0.5 S | 179
5/10/26 - 0010 51.3 25 16.3 38.3 WSW | 248 0.6 3.4 WSW | 252
5/10/26 - 0005 51.7 24 16.4 38.5 WSW | 241 0.5 2.6 SSW | 213
5/10/26 - 0000 52.2 24 16.5 38.8 SW | 224 1.5 4.4 SW | 220
5/9/26 - 2355 51.5 24 15.7 38.2 SW | 220 0.7 3.3 S | 188
5/9/26 - 2350 52.6 24 16.8 39.0 SW | 219 1.9 4.8 SSW | 197
5/9/26 - 2345 51.8 24 16.1 38.5 WSW | 244 1.0 3.1 SW | 219
5/9/26 - 2340 51.8 24 15.9 38.5 SW | 236 1.1 3.4 WSW | 257
5/9/26 - 2335 52.6 24 16.3 38.9 SW | 226 1.3 3.0 SW | 231
5/9/26 - 2330 52.4 24 16.3 38.8 SW | 231 2.3 4.5 WSW | 250
5/9/26 - 2325 52.1 23 15.9 38.6 WSW | 245 2.6 6.4 WSW | 247
5/9/26 - 2320 52.9 23 16.6 39.1 SW | 235 2.0 4.1 WSW | 255
5/9/26 - 2315 53.2 23 16.7 39.3 SW | 220 2.0 5.0 SW | 215
5/9/26 - 2310 52.2 23 15.8 38.6 WSW | 241 2.6 4.8 WSW | 239
5/9/26 - 2305 52.0 23 15.8 38.5 WSW | 254 2.6 5.4 WSW | 249
5/9/26 - 2300 51.8 23 15.5 38.4 WSW | 242 2.6 6.4 WSW | 245
5/9/26 - 2255 51.7 24 15.6 38.4 WSW | 247 2.1 4.8 WSW | 258
5/9/26 - 2250 51.4 24 15.6 38.2 W | 265 1.8 4.9 W | 275
5/9/26 - 2245 51.8 25 16.7 38.6 WSW | 250 2.8 5.1 WSW | 246
5/9/26 - 2240 52.2 25 17.1 38.9 WSW | 249 2.2 4.3 WSW | 242
5/9/26 - 2235 52.2 25 17.4 39.0 WSW | 246 2.4 5.8 WSW | 252
5/9/26 - 2230 52.9 25 17.8 39.4 SW | 226 1.9 4.1 SW | 220
5/9/26 - 2225 52.0 24 16.7 38.7 WSW | 250 2.6 6.1 WSW | 250
5/9/26 - 2220 51.8 25 17.2 38.7 WSW | 247 2.4 5.0 W | 260
5/9/26 - 2215 52.1 25 17.0 38.8 WSW | 251 2.1 4.8 W | 261
5/9/26 - 2210 52.7 25 17.5 39.2 SW | 235 3.1 5.8 WSW | 241
5/9/26 - 2205 52.3 25 17.7 39.1 W | 259 3.2 6.3 W | 262
5/9/26 - 2200 52.7 25 17.6 39.2 SW | 228 1.6 3.6 WSW | 254
5/9/26 - 2155 51.8 25 17.2 38.7 WSW | 255 2.8 6.0 WSW | 246
5/9/26 - 2150 52.7 24 17.2 39.2 WSW | 252 2.2 5.2 WSW | 254
5/9/26 - 2145 53.0 25 17.7 39.4 WSW | 253 3.7 6.7 WSW | 240
5/9/26 - 2140 52.4 24 16.8 39.0 WSW | 251 2.9 5.1 WSW | 250
5/9/26 - 2135 52.4 24 16.3 38.8 WSW | 253 3.8 6.2 WSW | 242
5/9/26 - 2130 51.8 23 15.3 38.3 WSW | 250 3.0 5.6 WSW | 246
5/9/26 - 2125 51.4 22 14.3 37.9 WSW | 245 2.2 4.2 W | 260
5/9/26 - 2120 51.3 23 14.2 37.8 WSW | 246 2.6 4.8 WSW | 247
5/9/26 - 2115 51.4 23 14.6 38.0 WSW | 240 1.6 3.4 WSW | 240
5/9/26 - 2110 51.0 23 14.2 37.7 WSW | 252 3.1 4.6 WSW | 258
5/9/26 - 2105 51.6 23 14.8 38.1 WSW | 257 1.3 4.9 WSW | 258
5/9/26 - 2100 51.5 22 14.1 37.9 SSW | 199 0.1 1.1 S | 180
5/9/26 - 2055 51.5 22 14.2 37.9 WNW | 285 0.7 2.7 N | 11
5/9/26 - 2050 52.3 23 15.8 38.7 WSW | 248 0.5 3.1 WSW | 238
5/9/26 - 2045 52.7 24 16.8 39.1 WSW | 252 1.3 3.7 W | 268
5/9/26 - 2040 52.9 23 16.2 39.0 W | 268 1.9 4.8 W | 277
5/9/26 - 2035 52.4 23 15.5 38.7 WSW | 251 1.6 4.6 WSW | 243
5/9/26 - 2030 52.4 23 15.4 38.7 W | 274 0.8 4.5 W | 269
5/9/26 - 2025 52.0 23 15.0 38.3 WNW | 285 0.1 1.9 W | 278
5/9/26 - 2020 52.6 23 15.7 38.8 WSW | 249 2.4 4.8 WSW | 247
5/9/26 - 2015 52.0 23 15.0 38.4 W | 274 1.5 5.0 W | 278
5/9/26 - 2010 52.7 23 15.7 38.8 WSW | 247 2.1 6.1 WSW | 252
5/9/26 - 2005 52.9 23 16.0 39.0 WSW | 246 2.6 5.6 W | 261
5/9/26 - 2000 53.5 23 16.5 39.4 SW | 236 2.0 6.6 SW | 236
5/9/26 - 1955 53.7 23 16.8 39.6 WSW | 248 2.3 4.8 SW | 228
5/9/26 - 1950 54.0 23 17.1 39.8 SW | 229 2.5 4.4 SW | 223
5/9/26 - 1945 53.9 23 17.2 39.7 WSW | 242 2.8 5.3 WSW | 243
5/9/26 - 1940 53.7 23 17.2 39.7 WSW | 245 1.6 3.5 W | 259
5/9/26 - 1935 54.3 23 17.8 40.1 WSW | 248 3.7 5.2 WSW | 251
5/9/26 - 1930 54.8 23 18.0 40.4 WSW | 245 3.0 4.8 WSW | 240
5/9/26 - 1925 54.7 23 17.9 40.3 WSW | 249 2.6 4.7 WSW | 246
5/9/26 - 1920 55.4 23 18.5 40.8 WSW | 249 3.3 4.8 WSW | 247
5/9/26 - 1915 56.3 23 19.5 41.4 WSW | 242 3.1 5.3 WSW | 241
5/9/26 - 1910 57.0 24 20.4 42.0 WSW | 249 2.9 4.9 WSW | 247
5/9/26 - 1905 57.5 24 20.6 42.2 SW | 232 2.0 4.0 WSW | 249
5/9/26 - 1900 58.4 24 21.8 43.0 SW | 227 1.4 3.6 SW | 216
5/9/26 - 1855 58.3 25 22.6 43.1 SW | 227 2.9 5.8 SSW | 213
5/9/26 - 1850 58.8 25 23.4 43.5 SW | 231 2.2 4.0 WSW | 243
5/9/26 - 1845 60.1 25 24.2 44.3 SW | 235 1.4 3.7 WSW | 248
5/9/26 - 1840 60.6 25 24.8 44.7 SW | 236 1.0 3.3 WSW | 244
5/9/26 - 1835 61.1 25 25.3 45.0 SW | 220 0.8 2.0 WSW | 254
5/9/26 - 1830 61.7 25 25.9 45.4 SW | 225 1.2 2.6 SSW | 198
5/9/26 - 1825 62.1 26 26.6 45.8 SW | 216 1.3 3.1 SW | 225
5/9/26 - 1820 62.6 26 26.9 46.1 SSW | 207 0.9 2.3 SW | 218
5/9/26 - 1815 63.2 25 26.6 46.3 SSW | 212 1.3 3.5 SW | 217
5/9/26 - 1810 64.3 25 27.9 47.0 SSW | 206 0.2 2.0 SSW | 198
5/9/26 - 1805 64.6 25 28.3 47.3 NNW | 334 0.2 2.5 NW | 305
5/9/26 - 1800 64.9 26 29.3 47.7 NNW | 342 2.9 8.0 NW | 313
5/9/26 - 1755 66.0 26 30.2 48.4 WSW | 254 2.0 8.3 N | 0
5/9/26 - 1750 65.8 24 28.2 47.7 N | 7 3.9 11.8 NNE | 14
5/9/26 - 1745 66.4 25 29.4 48.3 N | 353 1.1 5.8 WNW | 289
5/9/26 - 1740 66.2 25 29.5 48.3 N | 350 2.4 9.3 NW | 321
5/9/26 - 1735 65.9 25 29.1 48.0 NNW | 348 4.2 8.0 NW | 314
5/9/26 - 1730 66.5 25 29.2 48.3 N | 2 4.7 10.4 NNE | 16
5/9/26 - 1725 67.0 25 30.1 48.7 N | 6 3.2 9.2 NE | 34
5/9/26 - 1720 66.9 25 30.1 48.7 NNE | 13 1.7 6.2 NE | 45
5/9/26 - 1715 66.2 26 30.2 48.4 N | 359 3.0 8.2 NNW | 340
5/9/26 - 1710 66.5 27 31.3 48.9 NW | 319 4.6 10.0 NW | 322
5/9/26 - 1705 67.6 26 31.7 49.4 NW | 312 2.7 8.0 NW | 314
5/9/26 - 1700 67.0 26 31.3 49.1 NW | 310 3.9 9.4 NW | 323
5/9/26 - 1655 67.1 26 30.7 49.0 NNW | 340 2.9 8.6 NW | 322
5/9/26 - 1650 67.2 26 30.9 49.1 NW | 311 4.7 12.3 N | 7
5/9/26 - 1645 67.5 25 30.8 49.1 WNW | 303 0.8 5.4 WNW | 298
5/9/26 - 1640 67.1 25 30.4 48.9 NW | 315 2.2 7.6 NW | 304
5/9/26 - 1635 67.3 25 30.2 48.9 W | 272 1.9 5.1 W | 272
5/9/26 - 1630 68.3 25 31.1 49.5 WNW | 299 1.0 3.3 W | 266
5/9/26 - 1625 67.5 24 29.8 48.8 NNW | 331 4.2 15.2 NW | 312
5/9/26 - 1620 67.3 24 29.7 48.7 NNW | 328 1.5 7.1 NW | 317
5/9/26 - 1615 66.4 24 28.8 48.1 NNW | 336 2.6 7.4 N | 10
5/9/26 - 1610 66.9 24 29.2 48.4 NNW | 337 3.1 8.4 NNW | 330
5/9/26 - 1605 66.4 24 28.1 47.9 NNE | 12 3.6 8.6 N | 2
5/9/26 - 1600 67.1 24 28.9 48.4 NNE | 18 0.8 5.2 NNW | 345
5/9/26 - 1555 67.6 24 29.2 48.7 N | 3 0.9 5.3 N | 1
5/9/26 - 1550 67.6 24 29.6 48.8 NNE | 28 2.2 6.1 NNW | 330
5/9/26 - 1545 66.8 24 28.4 48.1 NNE | 27 4.0 11.5 NNE | 21
5/9/26 - 1540 67.2 24 29.3 48.6 NNE | 18 1.8 6.9 N | 6
5/9/26 - 1535 67.3 24 29.2 48.6 ESE | 103 1.0 5.3 ESE | 110
5/9/26 - 1530 67.3 24 29.1 48.5 NNE | 32 1.4 7.0 N | 1
5/9/26 - 1525 66.6 24 28.9 48.2 N | 5 5.6 13.8 NNW | 348
5/9/26 - 1520 66.9 24 29.2 48.4 N | 11 5.6 14.1 N | 0
5/9/26 - 1515 67.4 25 30.6 49.1 NNW | 328 4.1 8.8 WNW | 299
5/9/26 - 1510 66.6 24 29.1 48.3 WSW | 246 2.0 7.5 NNW | 330
5/9/26 - 1505 66.3 25 29.0 48.1 NNW | 338 3.7 10.5 N | 10
5/9/26 - 1500 67.7 24 29.7 48.9 N | 10 2.4 12.4 N | 0
5/9/26 - 1455 67.8 25 30.4 49.1 SE | 125 0.7 4.1 WNW | 288
5/9/26 - 1450 66.5 25 30.0 48.5 N | 349 1.6 5.2 NNE | 23
5/9/26 - 1445 66.2 24 28.8 48.0 NNE | 13 3.8 8.7 NNE | 26
5/9/26 - 1440 67.1 25 30.0 48.8 N | 9 2.4 6.9 NNE | 17
5/9/26 - 1435 67.0 25 29.9 48.7 S | 178 1.6 5.3 S | 177
5/9/26 - 1430 66.2 25 29.1 48.1 SSE | 161 1.6 4.1 SSE | 161
5/9/26 - 1425 67.6 24 29.9 48.9 ENE | 77 1.1 6.3 N | 7
5/9/26 - 1420 66.8 25 29.7 48.5 E | 101 0.4 4.4 NE | 35
5/9/26 - 1415 64.9 26 29.2 47.7 NNW | 337 2.7 8.1 N | 6
5/9/26 - 1410 65.1 25 28.6 47.6 N | 352 4.4 10.7 NW | 323
5/9/26 - 1405 66.0 25 29.5 48.2 N | 350 5.0 12.7 NNE | 27
5/9/26 - 1400 64.6 25 27.7 47.1 NNE | 15 4.4 11.4 NNE | 17
5/9/26 - 1355 65.9 25 29.1 48.0 N | 349 2.6 7.2 N | 7
5/9/26 - 1350 64.4 24 27.2 46.9 N | 2 4.7 9.6 NE | 40
5/9/26 - 1345 64.8 24 27.6 47.1 NNE | 21 5.1 10.5 N | 4
5/9/26 - 1340 65.0 24 27.5 47.2 N | 5 3.4 6.9 NNE | 25
5/9/26 - 1335 66.0 24 28.4 47.9 N | 10 3.7 8.8 N | 11
5/9/26 - 1330 66.3 24 28.9 48.1 SSE | 148 1.4 7.8 S | 180
5/9/26 - 1325 66.7 25 29.7 48.5 SSE | 152 1.1 8.5 S | 188
5/9/26 - 1320 64.1 25 27.3 46.8 NNE | 13 2.0 5.3 NNE | 29
5/9/26 - 1315 64.2 25 27.9 47.0 E | 96 1.5 8.0 NE | 38
5/9/26 - 1310 63.8 26 28.1 46.9 NNW | 337 4.7 10.5 NNE | 17
5/9/26 - 1305 63.2 25 26.6 46.2 NNE | 15 4.1 11.5 NNE | 20
5/9/26 - 1300 65.5 25 28.9 47.8 NE | 39 1.4 7.5 NNE | 19
5/9/26 - 1255 64.3 25 28.0 47.1 N | 9 2.4 6.5 NNW | 347
5/9/26 - 1250 63.5 25 27.4 46.6 N | 4 2.5 9.2 N | 0
5/9/26 - 1245 64.4 25 28.1 47.2 SE | 134 2.9 7.6 S | 173
5/9/26 - 1240 64.6 26 28.6 47.4 NNW | 347 4.7 7.7 N | 0
5/9/26 - 1235 64.4 25 27.9 47.1 ENE | 60 0.7 3.2 E | 95
5/9/26 - 1230 63.6 25 27.1 46.5 NNE | 32 1.6 7.0 NNE | 16
5/9/26 - 1225 63.9 25 27.6 46.8 NE | 48 1.1 4.9 ENE | 66
5/9/26 - 1220 62.2 26 26.9 45.9 N | 2 3.2 9.2 NW | 326
5/9/26 - 1215 63.0 26 28.0 46.6 NW | 306 5.2 12.6 NNW | 334
5/9/26 - 1210 62.9 26 27.1 46.3 E | 97 2.3 5.9 ESE | 106
5/9/26 - 1205 62.8 25 26.6 46.1 S | 180 0.5 2.7 E | 96
5/9/26 - 1200 61.2 25 25.0 45.0 NE | 44 1.4 6.3 NE | 50
5/9/26 - 1155 62.3 25 26.2 45.8 N | 7 3.2 7.7 NNE | 26
5/9/26 - 1150 60.4 26 25.0 44.6 N | 354 3.8 10.1 N | 350
5/9/26 - 1145 60.9 25 25.1 44.9 N | 11 3.2 10.0 NNE | 15
5/9/26 - 1140 61.6 25 25.9 45.4 NNE | 12 2.1 5.9 N | 9
5/9/26 - 1135 60.5 26 25.2 44.8 NNE | 25 1.9 7.7 NNE | 20
5/9/26 - 1130 60.8 26 25.4 44.9 NE | 53 1.9 6.3 ESE | 117
5/9/26 - 1125 60.3 26 25.4 44.7 NNE | 16 2.3 6.7 NNE | 28
5/9/26 - 1120 60.8 27 26.2 45.2 N | 355 4.1 12.2 NNE | 18
5/9/26 - 1115 60.8 27 26.5 45.2 ESE | 122 0.9 3.0 SSE | 156
5/9/26 - 1110 60.8 28 27.4 45.5 NNE | 14 1.7 6.7 E | 94
5/9/26 - 1105 60.4 29 27.7 45.4 N | 2 1.9 7.3 NW | 321
5/9/26 - 1100 59.5 28 26.0 44.5 NNE | 14 2.3 7.6 N | 3
5/9/26 - 1055 60.2 29 27.7 45.3 NNW | 340 2.1 7.2 NNW | 342
5/9/26 - 1050 60.2 28 26.7 45.0 ESE | 109 1.2 6.1 NNW | 335
5/9/26 - 1045 58.2 28 25.0 43.7 NNE | 20 4.2 11.2 NNE | 20
5/9/26 - 1040 59.4 29 26.8 44.7 NNW | 330 2.7 8.2 NNE | 26
5/9/26 - 1035 58.4 28 25.8 44.0 NE | 41 2.6 8.1 NNE | 24
5/9/26 - 1030 59.9 30 28.6 45.5 SSW | 196 0.4 2.3 S | 182
5/9/26 - 1025 59.2 30 27.7 44.9 S | 175 1.0 3.6 SSW | 206
5/9/26 - 1020 58.3 30 27.2 44.4 NNE | 23 2.8 6.3 N | 5
5/9/26 - 1015 59.1 31 28.4 45.1 SSW | 206 0.8 7.1 N | 0
5/9/26 - 1010 57.6 31 27.2 44.0 WNW | 303 2.6 7.6 NNW | 342
5/9/26 - 1005 58.0 31 27.2 44.2 WSW | 240 1.9 6.8 N | 0
5/9/26 - 1000 58.3 31 27.6 44.5 SSW | 198 1.3 5.3 S | 189
5/9/26 - 0955 57.8 31 27.5 44.2 SSW | 197 1.1 3.7 SSW | 195
5/9/26 - 0950 56.7 30 25.7 43.2 NNE | 33 1.5 4.9 NNE | 19
5/9/26 - 0945 57.5 32 27.7 44.2 NNE | 18 0.8 3.9 NE | 34
5/9/26 - 0940 57.5 32 27.6 44.1 N | 3 0.1 1.9 NNE | 27
5/9/26 - 0935 55.6 32 26.0 42.8 N | 11 2.0 5.9 NNE | 25
5/9/26 - 0930 56.0 31 26.2 43.0 N | 354 1.9 6.8 NW | 317
5/9/26 - 0925 55.5 31 25.6 42.6 N | 2 3.3 6.5 NNE | 21
5/9/26 - 0920 56.1 30 25.3 42.8 NE | 35 1.6 5.3 NE | 35
5/9/26 - 0915 56.5 31 26.5 43.4 NNE | 15 0.4 2.3 N | 0
5/9/26 - 0910 55.7 31 25.4 42.7 NNE | 31 1.5 5.5 NNE | 32
5/9/26 - 0905 56.0 32 26.2 43.0 NE | 45 0.5 5.1 NNE | 16
5/9/26 - 0900 55.7 31 25.9 42.8 E | 79 0.8 4.7 N | 3
5/9/26 - 0855 55.7 32 26.5 43.0 NE | 37 0.5 3.2 NE | 38
5/9/26 - 0850 55.5 32 26.3 42.8 N | 1 0.4 3.4 NNE | 15
5/9/26 - 0845 54.1 31 24.3 41.6 N | 5 1.3 5.2 N | 5
5/9/26 - 0840 54.7 32 25.3 42.2 N | 8 0.7 2.7 N | 4
5/9/26 - 0835 55.5 32 26.2 42.8 NNE | 23 0.6 2.9 NNE | 30
5/9/26 - 0830 56.1 32 26.3 43.1 NE | 44 0.0 1.0 NNE | 32
5/9/26 - 0825 56.0 32 26.9 43.2 N | 0 0.0 0.0 NE | 53
5/9/26 - 0820 54.9 34 27.0 42.8 E | 88 0.0 0.6 E | 91
5/9/26 - 0815 55.2 33 26.7 42.8 N | 0 0.0 0.0 N | 10
5/9/26 - 0810 54.8 32 25.4 42.2 ENE | 74 0.1 1.1 NE | 44
5/9/26 - 0805 54.3 32 25.2 42.0 E | 80 0.1 0.6 ENE | 61
5/9/26 - 0800 53.4 33 25.1 41.5 SSW | 203 0.0 0.7 SW | 215
5/9/26 - 0755 53.1 33 24.8 41.3 ESE | 110 0.0 0.7 ESE | 119
5/9/26 - 0750 52.9 32 24.1 41.0 ESE | 103 0.2 1.0 ESE | 117
5/9/26 - 0745 52.9 32 23.7 40.9 E | 90 0.0 0.9 E | 92
5/9/26 - 0740 52.1 33 23.8 40.5 NNW | 341 0.6 3.0 NW | 324
5/9/26 - 0735 51.7 33 23.4 40.2 NNW | 344 0.9 2.7 NW | 323
5/9/26 - 0730 51.6 33 23.2 40.1 NNW | 330 1.4 4.2 NW | 321
5/9/26 - 0725 51.2 32 22.3 39.7 SE | 124 0.3 1.4 E | 93
5/9/26 - 0720 51.1 32 22.2 39.6 SE | 128 0.0 0.7 SE | 139
5/9/26 - 0715 50.1 33 21.8 38.9 S | 182 0.1 1.0 SSW | 209
5/9/26 - 0710 48.6 33 20.4 37.8 SSW | 203 0.1 0.9 SSW | 212
5/9/26 - 0705 46.0 32 17.6 35.7 SSE | 158 0.0 0.5 SSE | 163
5/9/26 - 0700 45.6 33 17.9 35.6 SE | 140 0.1 1.1 N | 2
5/9/26 - 0655 45.5 33 17.9 35.6 N | 354 1.2 3.0 N | 4
5/9/26 - 0650 45.2 31 16.2 35.0 ENE | 69 0.1 1.1 NE | 39
5/9/26 - 0645 45.6 31 17.0 35.4 N | 0 0.0 0.0 SW | 214
5/9/26 - 0640 44.3 31 15.5 34.3 NNE | 27 0.0 0.2 NNE | 27
5/9/26 - 0635 43.9 30 14.7 34.0 ESE | 108 0.0 0.1 ESE | 108
5/9/26 - 0630 43.5 30 14.2 33.6 NE | 39 0.0 0.3 WSW | 254
5/9/26 - 0625 42.9 31 14.2 33.3 N | 0 0.0 0.0 NE | 55
5/9/26 - 0620 42.9 31 14.2 33.3 N | 0 0.0 0.0 N | 3
5/9/26 - 0615 43.5 33 16.5 34.1 W | 266 0.5 2.5 WNW | 284
5/9/26 - 0610 43.4 33 16.3 34.0 W | 259 0.6 3.4 W | 266
5/9/26 - 0605 42.8 33 16.0 33.6 SW | 236 1.0 3.6 WSW | 242
5/9/26 - 0600 42.8 34 16.1 33.6 SSW | 212 1.3 3.6 SSW | 200
5/9/26 - 0555 43.4 32 15.6 33.9 SW | 232 1.3 4.1 SW | 236
5/9/26 - 0550 42.3 33 15.3 33.2 SW | 215 0.6 2.5 SSW | 207
5/9/26 - 0545 42.0 33 15.2 33.0 SSW | 198 0.6 4.9 S | 189
5/9/26 - 0540 42.5 33 15.5 33.3 SSW | 192 0.6 5.3 S | 183
5/9/26 - 0535 42.8 33 15.5 33.5 SSW | 204 0.4 2.0 SSW | 204
5/9/26 - 0530 43.5 33 16.0 34.0 WSW | 246 0.7 3.9 WSW | 252
5/9/26 - 0525 44.0 33 17.0 34.5 WSW | 248 1.8 4.7 W | 260
Max 68.3 34 31.7 49.5 - 5.6 15.2 -
Avg 55.4 27 21.5 41.4 - 1.7 4.9 -
Min 42.0 22 12.7 33.0 - 0.0 0.0 -